sensor_id;sensor_type;location;lat;lon;timestamp;temperature;humidity
51476;DHT22;37554;50.362;7.568;2022-07-23T00:00:31;24.90;56.40
51476;DHT22;37554;50.362;7.568;2022-07-23T00:02:56;24.90;56.40
51476;DHT22;37554;50.362;7.568;2022-07-23T00:05:22;24.90;56.40
51476;DHT22;37554;50.362;7.568;2022-07-23T00:07:48;24.90;56.40
51476;DHT22;37554;50.362;7.568;2022-07-23T00:10:13;24.90;56.40
51476;DHT22;37554;50.362;7.568;2022-07-23T00:12:39;24.90;57.10
51476;DHT22;37554;50.362;7.568;2022-07-23T00:15:06;24.90;56.50
51476;DHT22;37554;50.362;7.568;2022-07-23T00:17:33;24.90;56.50
51476;DHT22;37554;50.362;7.568;2022-07-23T00:19:58;24.90;56.60
51476;DHT22;37554;50.362;7.568;2022-07-23T00:22:24;24.90;56.60
51476;DHT22;37554;50.362;7.568;2022-07-23T00:24:50;24.90;56.60
51476;DHT22;37554;50.362;7.568;2022-07-23T00:27:16;24.90;56.60
51476;DHT22;37554;50.362;7.568;2022-07-23T00:29:41;24.90;56.60
51476;DHT22;37554;50.362;7.568;2022-07-23T00:32:07;24.90;56.60
51476;DHT22;37554;50.362;7.568;2022-07-23T00:34:33;24.90;56.70
51476;DHT22;37554;50.362;7.568;2022-07-23T00:36:58;24.90;56.70
51476;DHT22;37554;50.362;7.568;2022-07-23T00:39:24;24.90;56.70
51476;DHT22;37554;50.362;7.568;2022-07-23T00:41:52;24.90;56.70
51476;DHT22;37554;50.362;7.568;2022-07-23T00:44:23;24.90;56.70
51476;DHT22;37554;50.362;7.568;2022-07-23T00:46:51;24.90;56.70
51476;DHT22;37554;50.362;7.568;2022-07-23T00:49:20;24.90;56.70
51476;DHT22;37554;50.362;7.568;2022-07-23T00:51:47;24.90;57.40
51476;DHT22;37554;50.362;7.568;2022-07-23T00:54:13;24.90;56.70
51476;DHT22;37554;50.362;7.568;2022-07-23T00:56:39;24.90;56.70
51476;DHT22;37554;50.362;7.568;2022-07-23T00:59:06;24.90;56.80
51476;DHT22;37554;50.362;7.568;2022-07-23T01:01:32;24.90;57.40
51476;DHT22;37554;50.362;7.568;2022-07-23T01:03:58;24.90;56.70
51476;DHT22;37554;50.362;7.568;2022-07-23T01:06:24;24.80;56.60
51476;DHT22;37554;50.362;7.568;2022-07-23T01:08:49;24.80;56.70
51476;DHT22;37554;50.362;7.568;2022-07-23T01:11:15;24.80;56.60
51476;DHT22;37554;50.362;7.568;2022-07-23T01:13:43;24.80;56.60
51476;DHT22;37554;50.362;7.568;2022-07-23T01:16:09;24.80;56.60
51476;DHT22;37554;50.362;7.568;2022-07-23T01:18:34;24.80;57.20
51476;DHT22;37554;50.362;7.568;2022-07-23T01:21:00;24.80;56.50
51476;DHT22;37554;50.362;7.568;2022-07-23T01:23:25;24.80;56.50
51476;DHT22;37554;50.362;7.568;2022-07-23T01:25:55;24.80;56.40
51476;DHT22;37554;50.362;7.568;2022-07-23T01:28:21;24.80;56.40
51476;DHT22;37554;50.362;7.568;2022-07-23T01:30:48;24.80;57.00
51476;DHT22;37554;50.362;7.568;2022-07-23T01:33:15;24.80;56.30
51476;DHT22;37554;50.362;7.568;2022-07-23T01:35:40;24.80;56.30
51476;DHT22;37554;50.362;7.568;2022-07-23T01:38:06;24.80;56.30
51476;DHT22;37554;50.362;7.568;2022-07-23T01:40:32;24.80;56.30
51476;DHT22;37554;50.362;7.568;2022-07-23T01:42:57;24.70;56.20
51476;DHT22;37554;50.362;7.568;2022-07-23T01:45:23;24.70;56.20
51476;DHT22;37554;50.362;7.568;2022-07-23T01:47:49;24.80;56.20
51476;DHT22;37554;50.362;7.568;2022-07-23T01:50:15;24.70;56.10
51476;DHT22;37554;50.362;7.568;2022-07-23T01:52:40;24.70;56.10
51476;DHT22;37554;50.362;7.568;2022-07-23T01:55:07;24.70;56.00
51476;DHT22;37554;50.362;7.568;2022-07-23T01:57:33;24.70;56.00
51476;DHT22;37554;50.362;7.568;2022-07-23T01:59:58;24.70;56.00
51476;DHT22;37554;50.362;7.568;2022-07-23T02:02:24;24.70;56.00
51476;DHT22;37554;50.362;7.568;2022-07-23T02:04:50;24.70;55.90
51476;DHT22;37554;50.362;7.568;2022-07-23T02:07:15;24.70;55.90
51476;DHT22;37554;50.362;7.568;2022-07-23T02:09:41;24.70;55.90
51476;DHT22;37554;50.362;7.568;2022-07-23T02:12:07;24.70;56.50
51476;DHT22;37554;50.362;7.568;2022-07-23T02:14:32;24.70;55.80
51476;DHT22;37554;50.362;7.568;2022-07-23T02:16:58;24.70;55.80
51476;DHT22;37554;50.362;7.568;2022-07-23T02:19:24;24.70;55.80
51476;DHT22;37554;50.362;7.568;2022-07-23T02:21:50;24.70;55.80
51476;DHT22;37554;50.362;7.568;2022-07-23T02:24:16;24.70;55.80
51476;DHT22;37554;50.362;7.568;2022-07-23T02:26:41;24.70;55.80
51476;DHT22;37554;50.362;7.568;2022-07-23T02:29:07;24.60;55.70
51476;DHT22;37554;50.362;7.568;2022-07-23T02:31:33;24.60;55.70
51476;DHT22;37554;50.362;7.568;2022-07-23T02:33:59;24.60;55.70
51476;DHT22;37554;50.362;7.568;2022-07-23T02:36:25;24.60;55.70
51476;DHT22;37554;50.362;7.568;2022-07-23T02:38:51;24.60;55.70
51476;DHT22;37554;50.362;7.568;2022-07-23T02:41:16;24.60;55.60
51476;DHT22;37554;50.362;7.568;2022-07-23T02:43:42;24.60;55.60
51476;DHT22;37554;50.362;7.568;2022-07-23T02:46:08;24.60;55.60
51476;DHT22;37554;50.362;7.568;2022-07-23T02:48:33;24.60;55.60
51476;DHT22;37554;50.362;7.568;2022-07-23T02:50:59;24.60;55.60
51476;DHT22;37554;50.362;7.568;2022-07-23T02:53:25;24.60;55.60
51476;DHT22;37554;50.362;7.568;2022-07-23T02:55:51;24.60;55.60
51476;DHT22;37554;50.362;7.568;2022-07-23T02:58:17;24.60;55.60
51476;DHT22;37554;50.362;7.568;2022-07-23T03:00:43;24.60;55.60
51476;DHT22;37554;50.362;7.568;2022-07-23T03:03:08;24.60;55.50
51476;DHT22;37554;50.362;7.568;2022-07-23T03:05:34;24.60;55.50
51476;DHT22;37554;50.362;7.568;2022-07-23T03:08:00;24.50;55.50
51476;DHT22;37554;50.362;7.568;2022-07-23T03:10:26;24.60;55.50
51476;DHT22;37554;50.362;7.568;2022-07-23T03:12:51;24.50;55.40
51476;DHT22;37554;50.362;7.568;2022-07-23T03:15:17;24.50;55.40
51476;DHT22;37554;50.362;7.568;2022-07-23T03:17:43;24.50;55.30
51476;DHT22;37554;50.362;7.568;2022-07-23T03:20:09;24.50;55.30
51476;DHT22;37554;50.362;7.568;2022-07-23T03:22:34;24.50;55.30
51476;DHT22;37554;50.362;7.568;2022-07-23T03:25:00;24.50;55.30
51476;DHT22;37554;50.362;7.568;2022-07-23T03:27:28;24.50;55.30
51476;DHT22;37554;50.362;7.568;2022-07-23T03:29:55;24.40;55.90
51476;DHT22;37554;50.362;7.568;2022-07-23T03:32:21;24.40;55.20
51476;DHT22;37554;50.362;7.568;2022-07-23T03:34:48;24.40;55.20
51476;DHT22;37554;50.362;7.568;2022-07-23T03:37:14;24.40;55.20
51476;DHT22;37554;50.362;7.568;2022-07-23T03:39:40;24.40;55.20
51476;DHT22;37554;50.362;7.568;2022-07-23T03:42:06;24.40;55.30
51476;DHT22;37554;50.362;7.568;2022-07-23T03:44:31;24.40;55.20
51476;DHT22;37554;50.362;7.568;2022-07-23T03:46:57;24.40;55.30
51476;DHT22;37554;50.362;7.568;2022-07-23T03:49:23;24.40;55.40
51476;DHT22;37554;50.362;7.568;2022-07-23T03:51:48;24.40;55.40
51476;DHT22;37554;50.362;7.568;2022-07-23T03:54:14;24.40;55.40
51476;DHT22;37554;50.362;7.568;2022-07-23T03:56:40;24.30;55.30
51476;DHT22;37554;50.362;7.568;2022-07-23T03:59:05;24.30;55.40
51476;DHT22;37554;50.362;7.568;2022-07-23T04:01:31;24.30;55.40
51476;DHT22;37554;50.362;7.568;2022-07-23T04:03:57;24.30;55.40
51476;DHT22;37554;50.362;7.568;2022-07-23T04:06:23;24.30;55.40
51476;DHT22;37554;50.362;7.568;2022-07-23T04:08:48;24.30;55.50
51476;DHT22;37554;50.362;7.568;2022-07-23T04:11:14;24.20;56.10
51476;DHT22;37554;50.362;7.568;2022-07-23T04:13:40;24.20;55.60
51476;DHT22;37554;50.362;7.568;2022-07-23T04:16:06;24.20;55.60
51476;DHT22;37554;50.362;7.568;2022-07-23T04:18:31;24.20;55.70
51476;DHT22;37554;50.362;7.568;2022-07-23T04:20:57;24.10;55.70
51476;DHT22;37554;50.362;7.568;2022-07-23T04:23:22;24.10;55.70
51476;DHT22;37554;50.362;7.568;2022-07-23T04:25:48;24.10;55.70
51476;DHT22;37554;50.362;7.568;2022-07-23T04:28:14;24.20;55.70
51476;DHT22;37554;50.362;7.568;2022-07-23T04:30:40;24.10;55.70
51476;DHT22;37554;50.362;7.568;2022-07-23T04:33:06;24.10;55.70
51476;DHT22;37554;50.362;7.568;2022-07-23T04:35:33;24.10;55.70
51476;DHT22;37554;50.362;7.568;2022-07-23T04:37:59;24.20;55.80
51476;DHT22;37554;50.362;7.568;2022-07-23T04:40:25;24.20;55.80
51476;DHT22;37554;50.362;7.568;2022-07-23T04:42:51;24.10;55.80
51476;DHT22;37554;50.362;7.568;2022-07-23T04:45:16;24.10;55.80
51476;DHT22;37554;50.362;7.568;2022-07-23T04:47:42;24.10;55.80
51476;DHT22;37554;50.362;7.568;2022-07-23T04:50:08;24.20;55.90
51476;DHT22;37554;50.362;7.568;2022-07-23T04:52:34;24.20;55.90
51476;DHT22;37554;50.362;7.568;2022-07-23T04:54:59;24.20;55.80
51476;DHT22;37554;50.362;7.568;2022-07-23T04:57:25;24.20;55.80
51476;DHT22;37554;50.362;7.568;2022-07-23T04:59:51;24.20;55.90
51476;DHT22;37554;50.362;7.568;2022-07-23T05:02:16;24.20;55.90
51476;DHT22;37554;50.362;7.568;2022-07-23T05:04:42;24.20;55.90
51476;DHT22;37554;50.362;7.568;2022-07-23T05:07:08;24.20;56.60
51476;DHT22;37554;50.362;7.568;2022-07-23T05:09:33;24.10;55.90
51476;DHT22;37554;50.362;7.568;2022-07-23T05:11:59;24.20;56.00
51476;DHT22;37554;50.362;7.568;2022-07-23T05:14:25;24.20;56.00
51476;DHT22;37554;50.362;7.568;2022-07-23T05:16:51;24.20;56.00
51476;DHT22;37554;50.362;7.568;2022-07-23T05:19:16;24.20;56.00
51476;DHT22;37554;50.362;7.568;2022-07-23T05:21:42;24.20;56.00
51476;DHT22;37554;50.362;7.568;2022-07-23T05:24:07;24.30;56.00
51476;DHT22;37554;50.362;7.568;2022-07-23T05:26:33;24.30;56.00
51476;DHT22;37554;50.362;7.568;2022-07-23T05:28:59;24.30;55.90
51476;DHT22;37554;50.362;7.568;2022-07-23T05:31:24;24.30;55.90
51476;DHT22;37554;50.362;7.568;2022-07-23T05:33:50;24.40;55.90
51476;DHT22;37554;50.362;7.568;2022-07-23T05:36:16;24.40;55.80
51476;DHT22;37554;50.362;7.568;2022-07-23T05:38:41;24.50;55.80
51476;DHT22;37554;50.362;7.568;2022-07-23T05:41:07;24.50;55.80
51476;DHT22;37554;50.362;7.568;2022-07-23T05:43:33;24.50;55.70
51476;DHT22;37554;50.362;7.568;2022-07-23T05:45:58;24.60;55.70
51476;DHT22;37554;50.362;7.568;2022-07-23T05:48:24;24.60;55.60
51476;DHT22;37554;50.362;7.568;2022-07-23T05:50:49;24.70;55.60
51476;DHT22;37554;50.362;7.568;2022-07-23T05:53:15;24.70;55.50
51476;DHT22;37554;50.362;7.568;2022-07-23T05:55:41;24.70;55.30
51476;DHT22;37554;50.362;7.568;2022-07-23T05:58:06;24.80;55.30
51476;DHT22;37554;50.362;7.568;2022-07-23T06:00:32;24.90;55.30
51476;DHT22;37554;50.362;7.568;2022-07-23T06:02:58;24.90;55.10
51476;DHT22;37554;50.362;7.568;2022-07-23T06:05:24;24.90;54.90
51476;DHT22;37554;50.362;7.568;2022-07-23T06:07:50;24.90;54.90
51476;DHT22;37554;50.362;7.568;2022-07-23T06:10:15;24.90;54.90
51476;DHT22;37554;50.362;7.568;2022-07-23T06:12:42;24.90;54.90
51476;DHT22;37554;50.362;7.568;2022-07-23T06:15:08;24.90;55.00
51476;DHT22;37554;50.362;7.568;2022-07-23T06:17:35;24.90;55.00
51476;DHT22;37554;50.362;7.568;2022-07-23T06:20:00;25.00;54.80
51476;DHT22;37554;50.362;7.568;2022-07-23T06:22:26;25.10;54.60
51476;DHT22;37554;50.362;7.568;2022-07-23T06:24:52;25.20;54.40
51476;DHT22;37554;50.362;7.568;2022-07-23T06:27:18;25.30;54.30
51476;DHT22;37554;50.362;7.568;2022-07-23T06:29:43;25.30;54.20
51476;DHT22;37554;50.362;7.568;2022-07-23T06:32:09;25.30;54.10
51476;DHT22;37554;50.362;7.568;2022-07-23T06:34:35;25.30;53.90
51476;DHT22;37554;50.362;7.568;2022-07-23T06:37:01;25.40;54.00
51476;DHT22;37554;50.362;7.568;2022-07-23T06:39:26;25.40;53.80
51476;DHT22;37554;50.362;7.568;2022-07-23T06:41:52;25.20;53.80
51476;DHT22;37554;50.362;7.568;2022-07-23T06:44:18;25.20;53.90
51476;DHT22;37554;50.362;7.568;2022-07-23T06:46:44;25.00;53.90
51476;DHT22;37554;50.362;7.568;2022-07-23T06:49:09;24.90;54.50
51476;DHT22;37554;50.362;7.568;2022-07-23T06:51:35;24.80;54.60
51476;DHT22;37554;50.362;7.568;2022-07-23T06:54:02;24.70;54.80
51476;DHT22;37554;50.362;7.568;2022-07-23T06:56:27;24.60;54.80
51476;DHT22;37554;50.362;7.568;2022-07-23T06:58:53;24.60;55.10
51476;DHT22;37554;50.362;7.568;2022-07-23T07:01:19;24.60;55.10
51476;DHT22;37554;50.362;7.568;2022-07-23T07:03:44;24.70;55.20
51476;DHT22;37554;50.362;7.568;2022-07-23T07:06:10;24.60;55.30
51476;DHT22;37554;50.362;7.568;2022-07-23T07:08:36;24.50;55.20
51476;DHT22;37554;50.362;7.568;2022-07-23T07:11:02;24.40;55.20
51476;DHT22;37554;50.362;7.568;2022-07-23T07:13:28;24.50;55.00
51476;DHT22;37554;50.362;7.568;2022-07-23T07:15:54;24.60;55.00
51476;DHT22;37554;50.362;7.568;2022-07-23T07:18:19;24.70;55.00
51476;DHT22;37554;50.362;7.568;2022-07-23T07:20:45;24.80;55.00
51476;DHT22;37554;50.362;7.568;2022-07-23T07:23:11;24.80;54.80
51476;DHT22;37554;50.362;7.568;2022-07-23T07:25:37;24.90;54.70
51476;DHT22;37554;50.362;7.568;2022-07-23T07:28:03;24.90;54.80
51476;DHT22;37554;50.362;7.568;2022-07-23T07:30:28;25.00;55.10
51476;DHT22;37554;50.362;7.568;2022-07-23T07:32:54;25.10;55.20
51476;DHT22;37554;50.362;7.568;2022-07-23T07:35:20;25.20;55.10
51476;DHT22;37554;50.362;7.568;2022-07-23T07:37:46;25.30;54.90
51476;DHT22;37554;50.362;7.568;2022-07-23T07:40:12;25.30;54.60
51476;DHT22;37554;50.362;7.568;2022-07-23T07:42:47;25.40;54.30
51476;DHT22;37554;50.362;7.568;2022-07-23T07:45:13;25.30;53.90
51476;DHT22;37554;50.362;7.568;2022-07-23T07:47:39;25.30;54.20
51476;DHT22;37554;50.362;7.568;2022-07-23T07:50:05;25.30;54.10
51476;DHT22;37554;50.362;7.568;2022-07-23T07:52:30;25.40;54.00
51476;DHT22;37554;50.362;7.568;2022-07-23T07:54:56;25.40;54.00
51476;DHT22;37554;50.362;7.568;2022-07-23T07:57:22;25.50;53.70
51476;DHT22;37554;50.362;7.568;2022-07-23T07:59:47;25.60;53.40
51476;DHT22;37554;50.362;7.568;2022-07-23T08:02:13;25.70;53.40
51476;DHT22;37554;50.362;7.568;2022-07-23T08:04:38;25.80;53.10
51476;DHT22;37554;50.362;7.568;2022-07-23T08:07:04;25.80;53.10
51476;DHT22;37554;50.362;7.568;2022-07-23T08:09:29;25.90;53.20
51476;DHT22;37554;50.362;7.568;2022-07-23T08:11:55;25.90;53.00
51476;DHT22;37554;50.362;7.568;2022-07-23T08:14:21;26.00;52.80
51476;DHT22;37554;50.362;7.568;2022-07-23T08:16:46;26.00;52.60
51476;DHT22;37554;50.362;7.568;2022-07-23T08:19:12;26.00;52.40
51476;DHT22;37554;50.362;7.568;2022-07-23T08:21:37;26.00;52.40
51476;DHT22;37554;50.362;7.568;2022-07-23T08:24:03;26.10;52.10
51476;DHT22;37554;50.362;7.568;2022-07-23T08:26:29;26.20;52.10
51476;DHT22;37554;50.362;7.568;2022-07-23T08:28:54;26.10;51.60
51476;DHT22;37554;50.362;7.568;2022-07-23T08:31:20;26.00;51.60
51476;DHT22;37554;50.362;7.568;2022-07-23T08:33:45;25.90;51.80
51476;DHT22;37554;50.362;7.568;2022-07-23T08:36:11;25.90;52.00
51476;DHT22;37554;50.362;7.568;2022-07-23T08:38:37;25.90;51.80
51476;DHT22;37554;50.362;7.568;2022-07-23T08:41:02;25.90;51.80
51476;DHT22;37554;50.362;7.568;2022-07-23T08:43:32;26.00;52.00
51476;DHT22;37554;50.362;7.568;2022-07-23T08:45:59;25.90;51.60
51476;DHT22;37554;50.362;7.568;2022-07-23T08:48:27;25.90;52.50
51476;DHT22;37554;50.362;7.568;2022-07-23T08:51:00;25.90;51.70
51476;DHT22;37554;50.362;7.568;2022-07-23T08:53:28;25.90;51.80
51476;DHT22;37554;50.362;7.568;2022-07-23T08:56:00;26.00;52.00
51476;DHT22;37554;50.362;7.568;2022-07-23T08:58:27;26.30;52.00
51476;DHT22;37554;50.362;7.568;2022-07-23T09:00:52;26.50;51.40
51476;DHT22;37554;50.362;7.568;2022-07-23T09:03:20;26.60;51.00
51476;DHT22;37554;50.362;7.568;2022-07-23T09:05:46;26.60;50.80
51476;DHT22;37554;50.362;7.568;2022-07-23T09:08:16;26.60;50.50
51476;DHT22;37554;50.362;7.568;2022-07-23T09:10:59;26.60;50.30
51476;DHT22;37554;50.362;7.568;2022-07-23T09:13:51;26.80;50.00
51476;DHT22;37554;50.362;7.568;2022-07-23T09:16:31;27.10;49.60
51476;DHT22;37554;50.362;7.568;2022-07-23T09:18:58;27.30;48.60
51476;DHT22;37554;50.362;7.568;2022-07-23T09:24:04;27.60;48.20
51476;DHT22;37554;50.362;7.568;2022-07-23T09:29:06;27.80;47.70
51476;DHT22;37554;50.362;7.568;2022-07-23T09:36:40;27.60;46.60
51476;DHT22;37554;50.362;7.568;2022-07-23T09:39:06;27.70;46.80
51476;DHT22;37554;50.362;7.568;2022-07-23T09:41:40;27.60;46.40
51476;DHT22;37554;50.362;7.568;2022-07-23T09:44:20;27.70;46.50
51476;DHT22;37554;50.362;7.568;2022-07-23T09:46:48;27.60;46.50
51476;DHT22;37554;50.362;7.568;2022-07-23T09:49:19;27.70;46.60
51476;DHT22;37554;50.362;7.568;2022-07-23T09:51:56;27.80;46.00
51476;DHT22;37554;50.362;7.568;2022-07-23T09:56:54;28.00;45.70
51476;DHT22;37554;50.362;7.568;2022-07-23T09:59:27;28.20;45.50
51476;DHT22;37554;50.362;7.568;2022-07-23T10:01:56;28.50;45.20
51476;DHT22;37554;50.362;7.568;2022-07-23T10:04:23;28.60;44.90
51476;DHT22;37554;50.362;7.568;2022-07-23T10:06:55;28.80;44.50
51476;DHT22;37554;50.362;7.568;2022-07-23T10:09:34;28.90;44.00
51476;DHT22;37554;50.362;7.568;2022-07-23T10:12:03;28.90;43.60
51476;DHT22;37554;50.362;7.568;2022-07-23T10:14:48;28.90;43.70
51476;DHT22;37554;50.362;7.568;2022-07-23T10:17:14;29.00;43.70
51476;DHT22;37554;50.362;7.568;2022-07-23T10:19:40;29.10;43.70
51476;DHT22;37554;50.362;7.568;2022-07-23T10:22:09;29.30;43.30
51476;DHT22;37554;50.362;7.568;2022-07-23T10:24:49;29.30;42.90
51476;DHT22;37554;50.362;7.568;2022-07-23T10:30:33;29.60;41.90
51476;DHT22;37554;50.362;7.568;2022-07-23T10:33:17;29.60;42.10
51476;DHT22;37554;50.362;7.568;2022-07-23T10:36:01;29.70;41.60
51476;DHT22;37554;50.362;7.568;2022-07-23T10:38:51;29.80;42.20
51476;DHT22;37554;50.362;7.568;2022-07-23T10:44:13;30.00;41.90
51476;DHT22;37554;50.362;7.568;2022-07-23T10:46:57;30.20;41.30
51476;DHT22;37554;50.362;7.568;2022-07-23T10:49:39;30.30;40.80
51476;DHT22;37554;50.362;7.568;2022-07-23T10:52:26;30.40;41.00
51476;DHT22;37554;50.362;7.568;2022-07-23T10:55:38;30.50;39.50
51476;DHT22;37554;50.362;7.568;2022-07-23T10:57:51;30.60;40.40
51476;DHT22;37554;50.362;7.568;2022-07-23T11:00:21;30.80;40.10
51476;DHT22;37554;50.362;7.568;2022-07-23T11:02:49;30.80;40.00
51476;DHT22;37554;50.362;7.568;2022-07-23T11:05:19;30.90;39.70
51476;DHT22;37554;50.362;7.568;2022-07-23T11:10:34;31.40;38.90
51476;DHT22;37554;50.362;7.568;2022-07-23T11:24:16;33.10;36.90
51476;DHT22;37554;50.362;7.568;2022-07-23T11:26:55;33.80;35.50
51476;DHT22;37554;50.362;7.568;2022-07-23T11:32:04;35.00;35.30
51476;DHT22;37554;50.362;7.568;2022-07-23T11:34:35;35.40;34.90
51476;DHT22;37554;50.362;7.568;2022-07-23T11:37:03;35.80;34.50
51476;DHT22;37554;50.362;7.568;2022-07-23T11:39:31;36.10;34.20
51476;DHT22;37554;50.362;7.568;2022-07-23T11:41:58;36.40;33.80
51476;DHT22;37554;50.362;7.568;2022-07-23T11:44:29;36.50;33.50
51476;DHT22;37554;50.362;7.568;2022-07-23T11:46:59;36.80;33.60
51476;DHT22;37554;50.362;7.568;2022-07-23T11:49:26;36.90;33.10
51476;DHT22;37554;50.362;7.568;2022-07-23T11:52:09;36.80;33.60
51476;DHT22;37554;50.362;7.568;2022-07-23T11:54:48;36.60;33.20
51476;DHT22;37554;50.362;7.568;2022-07-23T11:57:14;36.30;34.20
51476;DHT22;37554;50.362;7.568;2022-07-23T11:59:39;35.90;34.70
51476;DHT22;37554;50.362;7.568;2022-07-23T12:02:06;35.60;35.20
51476;DHT22;37554;50.362;7.568;2022-07-23T12:04:41;35.20;35.70
51476;DHT22;37554;50.362;7.568;2022-07-23T12:07:36;34.90;35.70
51476;DHT22;37554;50.362;7.568;2022-07-23T12:10:13;34.60;35.80
51476;DHT22;37554;50.362;7.568;2022-07-23T12:12:45;34.40;36.40
51476;DHT22;37554;50.362;7.568;2022-07-23T12:15:13;34.20;36.20
51476;DHT22;37554;50.362;7.568;2022-07-23T12:17:41;34.10;36.30
51476;DHT22;37554;50.362;7.568;2022-07-23T12:20:11;33.90;36.40
51476;DHT22;37554;50.362;7.568;2022-07-23T12:22:39;33.80;36.70
51476;DHT22;37554;50.362;7.568;2022-07-23T12:25:08;33.80;37.00
51476;DHT22;37554;50.362;7.568;2022-07-23T12:27:34;33.80;37.10
51476;DHT22;37554;50.362;7.568;2022-07-23T12:30:18;33.70;36.70
51476;DHT22;37554;50.362;7.568;2022-07-23T12:32:46;33.50;36.40
51476;DHT22;37554;50.362;7.568;2022-07-23T12:35:12;33.40;36.70
51476;DHT22;37554;50.362;7.568;2022-07-23T12:37:40;33.40;37.00
51476;DHT22;37554;50.362;7.568;2022-07-23T12:43:30;33.40;36.80
51476;DHT22;37554;50.362;7.568;2022-07-23T12:46:07;33.30;37.20
51476;DHT22;37554;50.362;7.568;2022-07-23T12:48:35;33.30;37.20
51476;DHT22;37554;50.362;7.568;2022-07-23T12:51:16;33.30;37.30
51476;DHT22;37554;50.362;7.568;2022-07-23T12:53:48;33.30;37.20
51476;DHT22;37554;50.362;7.568;2022-07-23T12:56:16;33.20;37.20
51476;DHT22;37554;50.362;7.568;2022-07-23T13:01:09;33.00;37.30
51476;DHT22;37554;50.362;7.568;2022-07-23T13:03:38;33.10;37.00
51476;DHT22;37554;50.362;7.568;2022-07-23T13:06:07;33.10;37.20
51476;DHT22;37554;50.362;7.568;2022-07-23T13:08:34;33.10;36.80
51476;DHT22;37554;50.362;7.568;2022-07-23T13:11:01;33.10;36.70
51476;DHT22;37554;50.362;7.568;2022-07-23T13:13:30;33.10;36.70
51476;DHT22;37554;50.362;7.568;2022-07-23T13:15:57;33.10;36.70
51476;DHT22;37554;50.362;7.568;2022-07-23T13:18:23;33.30;36.90
51476;DHT22;37554;50.362;7.568;2022-07-23T13:20:49;33.30;36.60
51476;DHT22;37554;50.362;7.568;2022-07-23T13:23:16;33.30;36.40
51476;DHT22;37554;50.362;7.568;2022-07-23T13:25:42;33.30;36.30
51476;DHT22;37554;50.362;7.568;2022-07-23T13:28:08;33.30;36.10
51476;DHT22;37554;50.362;7.568;2022-07-23T13:30:33;33.30;36.00
51476;DHT22;37554;50.362;7.568;2022-07-23T13:33:00;33.40;35.80
51476;DHT22;37554;50.362;7.568;2022-07-23T13:35:26;33.40;35.90
51476;DHT22;37554;50.362;7.568;2022-07-23T13:37:51;33.50;35.90
51476;DHT22;37554;50.362;7.568;2022-07-23T13:40:17;33.50;35.80
51476;DHT22;37554;50.362;7.568;2022-07-23T13:42:43;33.30;35.80
51476;DHT22;37554;50.362;7.568;2022-07-23T13:45:09;33.20;36.00
51476;DHT22;37554;50.362;7.568;2022-07-23T13:47:34;33.30;35.80
51476;DHT22;37554;50.362;7.568;2022-07-23T13:50:00;33.40;35.70
51476;DHT22;37554;50.362;7.568;2022-07-23T13:52:26;33.40;35.60
51476;DHT22;37554;50.362;7.568;2022-07-23T13:54:51;33.40;35.80
51476;DHT22;37554;50.362;7.568;2022-07-23T13:57:17;33.40;35.50
51476;DHT22;37554;50.362;7.568;2022-07-23T13:59:43;33.40;35.70
51476;DHT22;37554;50.362;7.568;2022-07-23T14:02:09;33.40;35.80
51476;DHT22;37554;50.362;7.568;2022-07-23T14:04:34;33.40;35.50
51476;DHT22;37554;50.362;7.568;2022-07-23T14:07:00;33.40;35.40
51476;DHT22;37554;50.362;7.568;2022-07-23T14:09:26;33.40;35.30
51476;DHT22;37554;50.362;7.568;2022-07-23T14:11:52;33.40;35.30
51476;DHT22;37554;50.362;7.568;2022-07-23T14:14:18;33.40;35.20
51476;DHT22;37554;50.362;7.568;2022-07-23T14:16:44;33.40;35.20
51476;DHT22;37554;50.362;7.568;2022-07-23T14:19:10;33.40;35.40
51476;DHT22;37554;50.362;7.568;2022-07-23T14:21:36;33.30;35.10
51476;DHT22;37554;50.362;7.568;2022-07-23T14:24:02;33.30;35.30
51476;DHT22;37554;50.362;7.568;2022-07-23T14:26:28;33.30;35.60
51476;DHT22;37554;50.362;7.568;2022-07-23T14:28:54;33.30;35.70
51476;DHT22;37554;50.362;7.568;2022-07-23T14:31:20;33.20;35.50
51476;DHT22;37554;50.362;7.568;2022-07-23T14:33:45;33.20;35.60
51476;DHT22;37554;50.362;7.568;2022-07-23T14:36:11;33.10;35.40
51476;DHT22;37554;50.362;7.568;2022-07-23T14:38:36;33.10;36.20
51476;DHT22;37554;50.362;7.568;2022-07-23T14:41:02;33.20;35.10
51476;DHT22;37554;50.362;7.568;2022-07-23T14:43:32;33.20;35.00
51476;DHT22;37554;50.362;7.568;2022-07-23T14:45:58;33.20;35.20
51476;DHT22;37554;50.362;7.568;2022-07-23T14:48:23;33.20;35.60
51476;DHT22;37554;50.362;7.568;2022-07-23T14:50:49;33.10;35.10
51476;DHT22;37554;50.362;7.568;2022-07-23T14:53:15;33.00;35.50
51476;DHT22;37554;50.362;7.568;2022-07-23T14:55:40;33.00;35.80
51476;DHT22;37554;50.362;7.568;2022-07-23T14:58:06;32.90;35.40
51476;DHT22;37554;50.362;7.568;2022-07-23T15:00:32;32.90;35.50
51476;DHT22;37554;50.362;7.568;2022-07-23T15:02:58;32.90;35.40
51476;DHT22;37554;50.362;7.568;2022-07-23T15:05:23;32.80;35.40
51476;DHT22;37554;50.362;7.568;2022-07-23T15:07:49;32.70;35.30
51476;DHT22;37554;50.362;7.568;2022-07-23T15:10:15;32.50;35.20
51476;DHT22;37554;50.362;7.568;2022-07-23T15:12:40;32.40;35.30
51476;DHT22;37554;50.362;7.568;2022-07-23T15:15:06;32.30;35.60
51476;DHT22;37554;50.362;7.568;2022-07-23T15:17:33;32.10;35.60
51476;DHT22;37554;50.362;7.568;2022-07-23T15:19:59;32.00;35.80
51476;DHT22;37554;50.362;7.568;2022-07-23T15:22:24;31.90;36.20
51476;DHT22;37554;50.362;7.568;2022-07-23T15:24:50;31.80;36.50
51476;DHT22;37554;50.362;7.568;2022-07-23T15:27:15;31.70;36.40
51476;DHT22;37554;50.362;7.568;2022-07-23T15:29:46;31.60;36.70
51476;DHT22;37554;50.362;7.568;2022-07-23T15:32:11;31.60;36.90
51476;DHT22;37554;50.362;7.568;2022-07-23T15:34:38;31.40;36.90
51476;DHT22;37554;50.362;7.568;2022-07-23T15:37:04;31.40;37.50
51476;DHT22;37554;50.362;7.568;2022-07-23T15:39:33;31.30;37.50
51476;DHT22;37554;50.362;7.568;2022-07-23T15:42:03;31.20;37.10
51476;DHT22;37554;50.362;7.568;2022-07-23T15:44:28;31.20;36.80
51476;DHT22;37554;50.362;7.568;2022-07-23T15:46:54;31.10;36.80
51476;DHT22;37554;50.362;7.568;2022-07-23T15:49:21;31.00;36.90
51476;DHT22;37554;50.362;7.568;2022-07-23T15:51:47;30.90;37.00
51476;DHT22;37554;50.362;7.568;2022-07-23T15:54:12;30.80;37.20
51476;DHT22;37554;50.362;7.568;2022-07-23T15:56:38;30.80;37.30
51476;DHT22;37554;50.362;7.568;2022-07-23T15:59:04;30.80;37.50
51476;DHT22;37554;50.362;7.568;2022-07-23T16:01:29;30.90;37.60
51476;DHT22;37554;50.362;7.568;2022-07-23T16:03:56;31.10;37.40
51476;DHT22;37554;50.362;7.568;2022-07-23T16:06:25;31.20;37.50
51476;DHT22;37554;50.362;7.568;2022-07-23T16:08:51;31.20;37.40
51476;DHT22;37554;50.362;7.568;2022-07-23T16:11:16;31.20;37.30